Crystal Springs, Nevada
Current Conditions -  °F | °C
As of 12:58 PM on Thursday 27 Nov 2014 (Local Time) from KINS Reporting Station
Few Clouds Few Clouds  
Wind Chill: 57°   Ceiling: Unl
Heat Index: 57°   Visibility: 10mi
Dew Point: 15°   Wind: 2mph
Humidity: 19%   Direction: NA
Pressure: 30.23"   Gusts: NA
Location:  37.7776°N, 115.121°W
Report Text: KINS 272058Z AUTO VRB02KT 10SM FEW180 14/M09 A3023 RMK AO2 SLP225 T01381095 57027 $
Loading
Personal Weather Stations






























Interactive Weather Map New forecast layout! Learn more

10-Day Weather Forecast

Advertisements
Track Severe Weather on mobile